Arizona, Louisiana
Current Conditions -  °F | °C
As of 1:35 AM on Saturday 29 Nov 2014 (Local Time) from KMNE Reporting Station
Overcast Overcast  
Wind Chill: 57°   Ceiling: 800
Heat Index: 57°   Visibility: 10mi
Dew Point: 54°   Wind: 7mph
Humidity: 88%   Direction: 170°S
Pressure: 30.08"   Gusts: NA
Location:  32.7443°N, 92.9625°W
Report Text: KMNE 290735Z AUTO 17006KT 10SM OVC008 14/12 A3008 RMK AO2
Loading
Personal Weather Stations






























Interactive Weather Map New forecast layout! Learn more

10-Day Weather Forecast

Advertisements
Track Severe Weather on mobile